sensor_id;sensor_type;location;lat;lon;timestamp;P1;durP1;ratioP1;P2;durP2;ratioP2
25479;SDS011;13393;49.378;8.686;2022-11-09T00:02:21;2.70;;;1.80;;
25479;SDS011;13393;49.378;8.686;2022-11-09T00:04:48;3.33;;;2.25;;
25479;SDS011;13393;49.378;8.686;2022-11-09T00:07:14;3.45;;;1.90;;
25479;SDS011;13393;49.378;8.686;2022-11-09T00:09:41;4.13;;;2.47;;
25479;SDS011;13393;49.378;8.686;2022-11-09T00:12:07;4.85;;;2.53;;
25479;SDS011;13393;49.378;8.686;2022-11-09T00:14:35;5.93;;;2.65;;
25479;SDS011;13393;49.378;8.686;2022-11-09T00:17:02;7.20;;;2.65;;
25479;SDS011;13393;49.378;8.686;2022-11-09T00:19:29;3.95;;;2.50;;
25479;SDS011;13393;49.378;8.686;2022-11-09T00:21:55;5.90;;;2.17;;
25479;SDS011;13393;49.378;8.686;2022-11-09T00:24:22;3.08;;;2.25;;
25479;SDS011;13393;49.378;8.686;2022-11-09T00:26:49;4.70;;;2.05;;
25479;SDS011;13393;49.378;8.686;2022-11-09T00:29:16;3.38;;;2.58;;
25479;SDS011;13393;49.378;8.686;2022-11-09T00:31:43;4.65;;;2.53;;
25479;SDS011;13393;49.378;8.686;2022-11-09T00:34:10;6.18;;;2.90;;
25479;SDS011;13393;49.378;8.686;2022-11-09T00:36:36;4.18;;;2.88;;
25479;SDS011;13393;49.378;8.686;2022-11-09T00:39:03;5.05;;;2.67;;
25479;SDS011;13393;49.378;8.686;2022-11-09T00:41:29;3.58;;;2.58;;
25479;SDS011;13393;49.378;8.686;2022-11-09T00:43:55;6.43;;;3.20;;
25479;SDS011;13393;49.378;8.686;2022-11-09T00:46:22;5.25;;;3.35;;
25479;SDS011;13393;49.378;8.686;2022-11-09T00:48:49;4.28;;;2.95;;
25479;SDS011;13393;49.378;8.686;2022-11-09T00:51:16;4.97;;;2.55;;
25479;SDS011;13393;49.378;8.686;2022-11-09T00:53:43;3.92;;;2.67;;
25479;SDS011;13393;49.378;8.686;2022-11-09T00:56:12;3.85;;;2.55;;
25479;SDS011;13393;49.378;8.686;2022-11-09T00:58:38;4.20;;;2.70;;
25479;SDS011;13393;49.378;8.686;2022-11-09T01:01:05;4.57;;;2.90;;
25479;SDS011;13393;49.378;8.686;2022-11-09T01:03:32;4.40;;;3.00;;
25479;SDS011;13393;49.378;8.686;2022-11-09T01:06:00;4.35;;;3.03;;
25479;SDS011;13393;49.378;8.686;2022-11-09T01:08:27;7.03;;;3.65;;
25479;SDS011;13393;49.378;8.686;2022-11-09T01:10:53;5.93;;;3.33;;
25479;SDS011;13393;49.378;8.686;2022-11-09T01:13:20;7.65;;;3.63;;
25479;SDS011;13393;49.378;8.686;2022-11-09T01:15:47;6.40;;;3.17;;
25479;SDS011;13393;49.378;8.686;2022-11-09T01:18:14;5.68;;;3.03;;
25479;SDS011;13393;49.378;8.686;2022-11-09T01:20:41;3.42;;;3.00;;
25479;SDS011;13393;49.378;8.686;2022-11-09T01:23:09;6.07;;;3.17;;
25479;SDS011;13393;49.378;8.686;2022-11-09T01:25:36;6.28;;;3.20;;
25479;SDS011;13393;49.378;8.686;2022-11-09T01:28:03;5.60;;;2.97;;
25479;SDS011;13393;49.378;8.686;2022-11-09T01:30:32;6.88;;;3.15;;
25479;SDS011;13393;49.378;8.686;2022-11-09T01:32:58;5.20;;;3.00;;
25479;SDS011;13393;49.378;8.686;2022-11-09T01:35:25;3.97;;;3.05;;
25479;SDS011;13393;49.378;8.686;2022-11-09T01:37:51;5.25;;;3.20;;
25479;SDS011;13393;49.378;8.686;2022-11-09T01:40:19;5.53;;;3.10;;
25479;SDS011;13393;49.378;8.686;2022-11-09T01:42:45;4.60;;;3.40;;
25479;SDS011;13393;49.378;8.686;2022-11-09T01:45:22;5.78;;;3.15;;
25479;SDS011;13393;49.378;8.686;2022-11-09T01:47:49;7.38;;;3.70;;
25479;SDS011;13393;49.378;8.686;2022-11-09T01:50:18;5.65;;;3.45;;
25479;SDS011;13393;49.378;8.686;2022-11-09T01:52:46;6.45;;;3.25;;
25479;SDS011;13393;49.378;8.686;2022-11-09T01:55:14;5.60;;;3.15;;
25479;SDS011;13393;49.378;8.686;2022-11-09T01:57:44;5.35;;;3.50;;
25479;SDS011;13393;49.378;8.686;2022-11-09T02:00:13;4.75;;;2.83;;
25479;SDS011;13393;49.378;8.686;2022-11-09T02:02:41;5.03;;;3.20;;
25479;SDS011;13393;49.378;8.686;2022-11-09T02:05:09;5.40;;;2.75;;
25479;SDS011;13393;49.378;8.686;2022-11-09T02:07:37;4.13;;;3.13;;
25479;SDS011;13393;49.378;8.686;2022-11-09T02:10:05;4.22;;;3.20;;
25479;SDS011;13393;49.378;8.686;2022-11-09T02:12:33;4.72;;;3.15;;
25479;SDS011;13393;49.378;8.686;2022-11-09T02:15:02;5.00;;;2.90;;
25479;SDS011;13393;49.378;8.686;2022-11-09T02:17:28;6.70;;;2.75;;
25479;SDS011;13393;49.378;8.686;2022-11-09T02:19:55;5.65;;;2.70;;
25479;SDS011;13393;49.378;8.686;2022-11-09T02:22:23;4.32;;;2.53;;
25479;SDS011;13393;49.378;8.686;2022-11-09T02:24:50;3.50;;;2.38;;
25479;SDS011;13393;49.378;8.686;2022-11-09T02:27:16;2.67;;;2.20;;
25479;SDS011;13393;49.378;8.686;2022-11-09T02:29:43;2.70;;;2.17;;
25479;SDS011;13393;49.378;8.686;2022-11-09T02:32:11;3.75;;;2.30;;
25479;SDS011;13393;49.378;8.686;2022-11-09T02:34:38;2.70;;;2.22;;
25479;SDS011;13393;49.378;8.686;2022-11-09T02:37:04;3.00;;;2.40;;
25479;SDS011;13393;49.378;8.686;2022-11-09T02:39:32;5.68;;;2.28;;
25479;SDS011;13393;49.378;8.686;2022-11-09T02:42:00;2.88;;;2.30;;
25479;SDS011;13393;49.378;8.686;2022-11-09T02:44:27;2.30;;;2.10;;
25479;SDS011;13393;49.378;8.686;2022-11-09T02:46:55;2.42;;;2.20;;
25479;SDS011;13393;49.378;8.686;2022-11-09T02:49:21;3.55;;;2.00;;
25479;SDS011;13393;49.378;8.686;2022-11-09T02:51:48;6.43;;;2.10;;
25479;SDS011;13393;49.378;8.686;2022-11-09T02:54:14;5.97;;;2.40;;
25479;SDS011;13393;49.378;8.686;2022-11-09T02:56:43;3.42;;;2.30;;
25479;SDS011;13393;49.378;8.686;2022-11-09T02:59:09;4.28;;;2.47;;
25479;SDS011;13393;49.378;8.686;2022-11-09T03:01:36;5.38;;;2.75;;
25479;SDS011;13393;49.378;8.686;2022-11-09T03:04:03;4.68;;;2.65;;
25479;SDS011;13393;49.378;8.686;2022-11-09T03:06:30;3.17;;;2.60;;
25479;SDS011;13393;49.378;8.686;2022-11-09T03:09:00;4.85;;;3.13;;
25479;SDS011;13393;49.378;8.686;2022-11-09T03:11:27;4.60;;;3.22;;
25479;SDS011;13393;49.378;8.686;2022-11-09T03:13:55;4.18;;;2.90;;
25479;SDS011;13393;49.378;8.686;2022-11-09T03:16:25;4.25;;;3.10;;
25479;SDS011;13393;49.378;8.686;2022-11-09T03:18:51;3.33;;;2.72;;
25479;SDS011;13393;49.378;8.686;2022-11-09T03:21:18;6.07;;;2.90;;
25479;SDS011;13393;49.378;8.686;2022-11-09T03:23:46;4.43;;;2.95;;
25479;SDS011;13393;49.378;8.686;2022-11-09T03:26:12;4.85;;;3.50;;
25479;SDS011;13393;49.378;8.686;2022-11-09T03:28:39;4.40;;;3.10;;
25479;SDS011;13393;49.378;8.686;2022-11-09T03:31:08;4.07;;;2.78;;
25479;SDS011;13393;49.378;8.686;2022-11-09T03:33:35;2.90;;;2.60;;
25479;SDS011;13393;49.378;8.686;2022-11-09T03:36:02;4.20;;;2.65;;
25479;SDS011;13393;49.378;8.686;2022-11-09T03:38:28;3.58;;;2.90;;
25479;SDS011;13393;49.378;8.686;2022-11-09T03:40:57;4.13;;;2.55;;
25479;SDS011;13393;49.378;8.686;2022-11-09T03:43:24;5.13;;;3.17;;
25479;SDS011;13393;49.378;8.686;2022-11-09T03:45:51;5.90;;;3.50;;
25479;SDS011;13393;49.378;8.686;2022-11-09T03:48:19;3.95;;;2.50;;
25479;SDS011;13393;49.378;8.686;2022-11-09T03:50:49;3.08;;;2.60;;
25479;SDS011;13393;49.378;8.686;2022-11-09T03:53:16;2.90;;;2.63;;
25479;SDS011;13393;49.378;8.686;2022-11-09T03:55:42;3.05;;;2.70;;
25479;SDS011;13393;49.378;8.686;2022-11-09T03:58:09;3.05;;;2.50;;
25479;SDS011;13393;49.378;8.686;2022-11-09T04:00:37;8.43;;;5.57;;
25479;SDS011;13393;49.378;8.686;2022-11-09T04:03:03;6.65;;;4.70;;
25479;SDS011;13393;49.378;8.686;2022-11-09T04:05:31;5.07;;;3.70;;
25479;SDS011;13393;49.378;8.686;2022-11-09T04:07:58;4.78;;;3.03;;
25479;SDS011;13393;49.378;8.686;2022-11-09T04:10:25;3.80;;;3.03;;
25479;SDS011;13393;49.378;8.686;2022-11-09T04:12:52;6.22;;;2.70;;
25479;SDS011;13393;49.378;8.686;2022-11-09T04:15:18;5.10;;;3.40;;
25479;SDS011;13393;49.378;8.686;2022-11-09T04:17:52;4.38;;;3.00;;
25479;SDS011;13393;49.378;8.686;2022-11-09T04:20:19;6.53;;;2.90;;
25479;SDS011;13393;49.378;8.686;2022-11-09T04:22:47;3.00;;;2.70;;
25479;SDS011;13393;49.378;8.686;2022-11-09T04:25:18;3.28;;;2.97;;
25479;SDS011;13393;49.378;8.686;2022-11-09T04:27:44;5.47;;;3.40;;
25479;SDS011;13393;49.378;8.686;2022-11-09T04:30:11;3.75;;;3.08;;
25479;SDS011;13393;49.378;8.686;2022-11-09T04:32:37;2.83;;;2.60;;
25479;SDS011;13393;49.378;8.686;2022-11-09T04:35:04;3.35;;;3.00;;
25479;SDS011;13393;49.378;8.686;2022-11-09T04:37:31;4.20;;;3.55;;
25479;SDS011;13393;49.378;8.686;2022-11-09T04:39:58;3.33;;;2.80;;
25479;SDS011;13393;49.378;8.686;2022-11-09T04:42:25;2.78;;;2.53;;
25479;SDS011;13393;49.378;8.686;2022-11-09T04:44:51;4.72;;;2.70;;
25479;SDS011;13393;49.378;8.686;2022-11-09T04:47:17;3.88;;;2.92;;
25479;SDS011;13393;49.378;8.686;2022-11-09T04:49:44;3.15;;;2.80;;
25479;SDS011;13393;49.378;8.686;2022-11-09T04:52:10;3.30;;;2.72;;
25479;SDS011;13393;49.378;8.686;2022-11-09T04:54:37;4.30;;;2.80;;
25479;SDS011;13393;49.378;8.686;2022-11-09T04:57:05;4.15;;;2.75;;
25479;SDS011;13393;49.378;8.686;2022-11-09T04:59:31;4.43;;;2.80;;
25479;SDS011;13393;49.378;8.686;2022-11-09T05:01:57;5.90;;;2.90;;
25479;SDS011;13393;49.378;8.686;2022-11-09T05:04:23;2.75;;;2.33;;
25479;SDS011;13393;49.378;8.686;2022-11-09T05:06:50;3.03;;;2.50;;
25479;SDS011;13393;49.378;8.686;2022-11-09T05:09:16;3.70;;;2.58;;
25479;SDS011;13393;49.378;8.686;2022-11-09T05:11:43;4.70;;;2.50;;
25479;SDS011;13393;49.378;8.686;2022-11-09T05:14:10;2.75;;;2.05;;
25479;SDS011;13393;49.378;8.686;2022-11-09T05:16:37;4.15;;;1.98;;
25479;SDS011;13393;49.378;8.686;2022-11-09T05:19:03;2.67;;;2.10;;
25479;SDS011;13393;49.378;8.686;2022-11-09T05:21:29;2.78;;;1.85;;
25479;SDS011;13393;49.378;8.686;2022-11-09T05:23:56;2.85;;;2.05;;
25479;SDS011;13393;49.378;8.686;2022-11-09T05:26:28;4.00;;;2.40;;
25479;SDS011;13393;49.378;8.686;2022-11-09T05:28:54;4.75;;;2.10;;
25479;SDS011;13393;49.378;8.686;2022-11-09T05:31:23;3.25;;;1.88;;
25479;SDS011;13393;49.378;8.686;2022-11-09T05:33:49;2.25;;;2.05;;
25479;SDS011;13393;49.378;8.686;2022-11-09T05:36:16;2.63;;;2.30;;
25479;SDS011;13393;49.378;8.686;2022-11-09T05:38:43;5.00;;;2.47;;
25479;SDS011;13393;49.378;8.686;2022-11-09T05:41:09;2.65;;;2.20;;
25479;SDS011;13393;49.378;8.686;2022-11-09T05:43:35;3.97;;;2.20;;
25479;SDS011;13393;49.378;8.686;2022-11-09T05:46:02;4.90;;;2.28;;
25479;SDS011;13393;49.378;8.686;2022-11-09T05:48:29;3.30;;;2.00;;
25479;SDS011;13393;49.378;8.686;2022-11-09T05:50:58;2.25;;;2.05;;
25479;SDS011;13393;49.378;8.686;2022-11-09T05:53:25;2.45;;;2.03;;
25479;SDS011;13393;49.378;8.686;2022-11-09T05:55:51;3.05;;;2.30;;
25479;SDS011;13393;49.378;8.686;2022-11-09T05:58:18;6.22;;;2.17;;
25479;SDS011;13393;49.378;8.686;2022-11-09T06:00:44;2.97;;;1.80;;
25479;SDS011;13393;49.378;8.686;2022-11-09T06:03:10;3.40;;;2.10;;
25479;SDS011;13393;49.378;8.686;2022-11-09T06:05:38;2.95;;;1.77;;
25479;SDS011;13393;49.378;8.686;2022-11-09T06:08:06;2.75;;;1.98;;
25479;SDS011;13393;49.378;8.686;2022-11-09T06:10:33;2.85;;;1.95;;
25479;SDS011;13393;49.378;8.686;2022-11-09T06:12:59;2.10;;;1.80;;
25479;SDS011;13393;49.378;8.686;2022-11-09T06:15:26;2.28;;;1.65;;
25479;SDS011;13393;49.378;8.686;2022-11-09T06:17:53;1.60;;;1.50;;
25479;SDS011;13393;49.378;8.686;2022-11-09T06:20:19;3.75;;;1.77;;
25479;SDS011;13393;49.378;8.686;2022-11-09T06:22:52;6.85;;;2.50;;
25479;SDS011;13393;49.378;8.686;2022-11-09T06:25:19;3.35;;;1.88;;
25479;SDS011;13393;49.378;8.686;2022-11-09T06:27:46;2.97;;;1.88;;
25479;SDS011;13393;49.378;8.686;2022-11-09T06:30:12;2.53;;;1.65;;
25479;SDS011;13393;49.378;8.686;2022-11-09T06:32:39;2.15;;;1.40;;
25479;SDS011;13393;49.378;8.686;2022-11-09T06:35:05;1.63;;;1.17;;
25479;SDS011;13393;49.378;8.686;2022-11-09T06:37:32;3.00;;;1.40;;
25479;SDS011;13393;49.378;8.686;2022-11-09T06:40:00;2.15;;;1.48;;
25479;SDS011;13393;49.378;8.686;2022-11-09T06:42:26;1.75;;;1.20;;
25479;SDS011;13393;49.378;8.686;2022-11-09T06:44:52;2.00;;;1.40;;
25479;SDS011;13393;49.378;8.686;2022-11-09T06:47:19;2.40;;;1.20;;
25479;SDS011;13393;49.378;8.686;2022-11-09T06:49:45;1.83;;;1.13;;
25479;SDS011;13393;49.378;8.686;2022-11-09T06:52:11;3.45;;;1.00;;
25479;SDS011;13393;49.378;8.686;2022-11-09T06:54:38;2.38;;;1.13;;
25479;SDS011;13393;49.378;8.686;2022-11-09T06:57:05;2.72;;;1.38;;
25479;SDS011;13393;49.378;8.686;2022-11-09T06:59:32;1.80;;;1.23;;
25479;SDS011;13393;49.378;8.686;2022-11-09T07:01:59;1.48;;;1.00;;
25479;SDS011;13393;49.378;8.686;2022-11-09T07:04:26;1.13;;;1.00;;
25479;SDS011;13393;49.378;8.686;2022-11-09T07:06:52;1.40;;;1.20;;
25479;SDS011;13393;49.378;8.686;2022-11-09T07:09:19;3.38;;;1.50;;
25479;SDS011;13393;49.378;8.686;2022-11-09T07:11:47;4.15;;;1.13;;
25479;SDS011;13393;49.378;8.686;2022-11-09T07:14:15;1.20;;;1.10;;
25479;SDS011;13393;49.378;8.686;2022-11-09T07:16:42;1.88;;;1.23;;
25479;SDS011;13393;49.378;8.686;2022-11-09T07:19:08;1.80;;;1.13;;
25479;SDS011;13393;49.378;8.686;2022-11-09T07:21:35;1.92;;;1.35;;
25479;SDS011;13393;49.378;8.686;2022-11-09T07:24:02;1.20;;;1.10;;
25479;SDS011;13393;49.378;8.686;2022-11-09T07:26:28;1.40;;;1.15;;
25479;SDS011;13393;49.378;8.686;2022-11-09T07:28:55;0.82;;;0.82;;
25479;SDS011;13393;49.378;8.686;2022-11-09T07:31:23;2.35;;;1.30;;
25479;SDS011;13393;49.378;8.686;2022-11-09T07:33:53;1.65;;;1.20;;
25479;SDS011;13393;49.378;8.686;2022-11-09T07:36:20;1.52;;;1.05;;
25479;SDS011;13393;49.378;8.686;2022-11-09T07:38:46;0.90;;;0.90;;
25479;SDS011;13393;49.378;8.686;2022-11-09T07:41:13;1.92;;;1.17;;
25479;SDS011;13393;49.378;8.686;2022-11-09T07:43:39;1.30;;;1.20;;
25479;SDS011;13393;49.378;8.686;2022-11-09T07:46:06;1.20;;;1.10;;
25479;SDS011;13393;49.378;8.686;2022-11-09T07:48:34;1.42;;;1.33;;
25479;SDS011;13393;49.378;8.686;2022-11-09T07:51:00;2.78;;;1.45;;
25479;SDS011;13393;49.378;8.686;2022-11-09T07:53:27;1.50;;;1.40;;
25479;SDS011;13393;49.378;8.686;2022-11-09T07:55:56;1.40;;;1.30;;
25479;SDS011;13393;49.378;8.686;2022-11-09T07:58:23;2.72;;;1.35;;
25479;SDS011;13393;49.378;8.686;2022-11-09T08:00:50;2.10;;;1.50;;
25479;SDS011;13393;49.378;8.686;2022-11-09T08:03:17;1.88;;;1.30;;
25479;SDS011;13393;49.378;8.686;2022-11-09T08:05:44;1.20;;;0.93;;
25479;SDS011;13393;49.378;8.686;2022-11-09T08:08:11;1.60;;;1.00;;
25479;SDS011;13393;49.378;8.686;2022-11-09T08:10:39;1.75;;;1.00;;
25479;SDS011;13393;49.378;8.686;2022-11-09T08:13:06;1.33;;;1.10;;
25479;SDS011;13393;49.378;8.686;2022-11-09T08:15:33;3.42;;;1.50;;
25479;SDS011;13393;49.378;8.686;2022-11-09T08:18:00;2.20;;;1.70;;
25479;SDS011;13393;49.378;8.686;2022-11-09T08:20:27;1.30;;;1.08;;
25479;SDS011;13393;49.378;8.686;2022-11-09T08:22:55;0.85;;;0.82;;
25479;SDS011;13393;49.378;8.686;2022-11-09T08:25:21;2.70;;;1.55;;
25479;SDS011;13393;49.378;8.686;2022-11-09T08:27:48;2.15;;;1.20;;
25479;SDS011;13393;49.378;8.686;2022-11-09T08:30:15;1.33;;;1.17;;
25479;SDS011;13393;49.378;8.686;2022-11-09T08:32:42;2.38;;;1.33;;
25479;SDS011;13393;49.378;8.686;2022-11-09T08:35:10;2.05;;;1.25;;
25479;SDS011;13393;49.378;8.686;2022-11-09T08:37:37;2.38;;;1.33;;
25479;SDS011;13393;49.378;8.686;2022-11-09T08:40:06;1.00;;;0.90;;
25479;SDS011;13393;49.378;8.686;2022-11-09T08:42:32;0.95;;;0.85;;
25479;SDS011;13393;49.378;8.686;2022-11-09T08:44:59;1.90;;;1.00;;
25479;SDS011;13393;49.378;8.686;2022-11-09T08:47:26;2.38;;;1.08;;
25479;SDS011;13393;49.378;8.686;2022-11-09T08:49:52;0.70;;;0.70;;
25479;SDS011;13393;49.378;8.686;2022-11-09T08:52:18;3.58;;;0.90;;
25479;SDS011;13393;49.378;8.686;2022-11-09T08:54:45;0.85;;;0.85;;
25479;SDS011;13393;49.378;8.686;2022-11-09T08:57:12;1.05;;;0.95;;
25479;SDS011;13393;49.378;8.686;2022-11-09T08:59:39;0.60;;;0.60;;
25479;SDS011;13393;49.378;8.686;2022-11-09T09:02:05;1.40;;;1.00;;
25479;SDS011;13393;49.378;8.686;2022-11-09T09:04:32;2.15;;;1.95;;
25479;SDS011;13393;49.378;8.686;2022-11-09T09:06:58;1.13;;;0.82;;
25479;SDS011;13393;49.378;8.686;2022-11-09T09:09:25;1.23;;;0.80;;
25479;SDS011;13393;49.378;8.686;2022-11-09T09:11:51;1.52;;;1.00;;
25479;SDS011;13393;49.378;8.686;2022-11-09T09:14:19;1.15;;;0.88;;
25479;SDS011;13393;49.378;8.686;2022-11-09T09:16:46;0.82;;;0.80;;
25479;SDS011;13393;49.378;8.686;2022-11-09T09:19:12;0.80;;;0.80;;
25479;SDS011;13393;49.378;8.686;2022-11-09T09:21:38;0.75;;;0.75;;
25479;SDS011;13393;49.378;8.686;2022-11-09T09:24:05;1.35;;;0.95;;
25479;SDS011;13393;49.378;8.686;2022-11-09T09:26:31;0.90;;;0.90;;
25479;SDS011;13393;49.378;8.686;2022-11-09T09:28:58;1.42;;;0.77;;
25479;SDS011;13393;49.378;8.686;2022-11-09T09:31:26;1.00;;;0.85;;
25479;SDS011;13393;49.378;8.686;2022-11-09T09:33:53;0.80;;;0.80;;
25479;SDS011;13393;49.378;8.686;2022-11-09T09:36:20;1.00;;;0.93;;
25479;SDS011;13393;49.378;8.686;2022-11-09T09:38:48;1.88;;;0.90;;
25479;SDS011;13393;49.378;8.686;2022-11-09T09:41:17;0.95;;;0.80;;
25479;SDS011;13393;49.378;8.686;2022-11-09T09:43:46;0.80;;;0.80;;
25479;SDS011;13393;49.378;8.686;2022-11-09T09:46:15;2.22;;;0.80;;
25479;SDS011;13393;49.378;8.686;2022-11-09T09:48:45;2.55;;;0.80;;
25479;SDS011;13393;49.378;8.686;2022-11-09T09:51:15;0.93;;;0.90;;
25479;SDS011;13393;49.378;8.686;2022-11-09T09:53:44;1.10;;;0.98;;
25479;SDS011;13393;49.378;8.686;2022-11-09T09:56:14;2.05;;;1.30;;
25479;SDS011;13393;49.378;8.686;2022-11-09T09:58:43;10.93;;;1.50;;
25479;SDS011;13393;49.378;8.686;2022-11-09T10:01:12;15.50;;;2.42;;
25479;SDS011;13393;49.378;8.686;2022-11-09T10:03:40;9.85;;;1.40;;
25479;SDS011;13393;49.378;8.686;2022-11-09T10:06:10;1.65;;;1.23;;
25479;SDS011;13393;49.378;8.686;2022-11-09T10:08:43;4.93;;;1.70;;
25479;SDS011;13393;49.378;8.686;2022-11-09T10:11:15;3.28;;;1.20;;
25479;SDS011;13393;49.378;8.686;2022-11-09T10:13:50;3.30;;;1.20;;
25479;SDS011;13393;49.378;8.686;2022-11-09T10:16:19;2.72;;;1.30;;
25479;SDS011;13393;49.378;8.686;2022-11-09T10:18:58;1.67;;;1.10;;
25479;SDS011;13393;49.378;8.686;2022-11-09T10:21:35;1.35;;;1.25;;
25479;SDS011;13393;49.378;8.686;2022-11-09T10:24:12;2.00;;;1.20;;
25479;SDS011;13393;49.378;8.686;2022-11-09T10:26:40;1.25;;;1.00;;
25479;SDS011;13393;49.378;8.686;2022-11-09T10:29:14;1.38;;;1.10;;
25479;SDS011;13393;49.378;8.686;2022-11-09T10:31:42;1.23;;;1.13;;
25479;SDS011;13393;49.378;8.686;2022-11-09T10:34:12;1.30;;;0.90;;
25479;SDS011;13393;49.378;8.686;2022-11-09T10:36:42;3.72;;;1.20;;
25479;SDS011;13393;49.378;8.686;2022-11-09T10:39:11;2.63;;;1.20;;
25479;SDS011;13393;49.378;8.686;2022-11-09T10:41:38;1.98;;;1.00;;
25479;SDS011;13393;49.378;8.686;2022-11-09T10:44:06;1.40;;;1.13;;
25479;SDS011;13393;49.378;8.686;2022-11-09T10:46:59;1.90;;;0.90;;
25479;SDS011;13393;49.378;8.686;2022-11-09T10:49:26;2.22;;;1.33;;
25479;SDS011;13393;49.378;8.686;2022-11-09T10:51:53;2.03;;;1.38;;
25479;SDS011;13393;49.378;8.686;2022-11-09T10:54:21;2.28;;;1.00;;
25479;SDS011;13393;49.378;8.686;2022-11-09T10:56:49;1.85;;;1.17;;
25479;SDS011;13393;49.378;8.686;2022-11-09T10:59:31;1.80;;;1.27;;
25479;SDS011;13393;49.378;8.686;2022-11-09T11:01:59;3.50;;;1.13;;
25479;SDS011;13393;49.378;8.686;2022-11-09T11:04:26;2.88;;;1.20;;
25479;SDS011;13393;49.378;8.686;2022-11-09T11:06:54;2.90;;;1.40;;
25479;SDS011;13393;49.378;8.686;2022-11-09T11:09:21;18.10;;;2.67;;
25479;SDS011;13393;49.378;8.686;2022-11-09T11:11:47;6.88;;;1.77;;
25479;SDS011;13393;49.378;8.686;2022-11-09T11:14:14;1.85;;;1.23;;
25479;SDS011;13393;49.378;8.686;2022-11-09T11:16:42;2.35;;;1.05;;
25479;SDS011;13393;49.378;8.686;2022-11-09T11:24:44;2.35;;;1.38;;
25479;SDS011;13393;49.378;8.686;2022-11-09T11:27:12;1.23;;;1.13;;
25479;SDS011;13393;49.378;8.686;2022-11-09T11:29:42;3.50;;;1.30;;
25479;SDS011;13393;49.378;8.686;2022-11-09T11:32:13;2.05;;;1.23;;
25479;SDS011;13393;49.378;8.686;2022-11-09T11:34:40;2.13;;;1.30;;
25479;SDS011;13393;49.378;8.686;2022-11-09T11:37:11;2.55;;;1.15;;
25479;SDS011;13393;49.378;8.686;2022-11-09T11:39:49;2.25;;;1.27;;
25479;SDS011;13393;49.378;8.686;2022-11-09T11:45:08;3.25;;;1.00;;
25479;SDS011;13393;49.378;8.686;2022-11-09T11:47:41;3.17;;;1.30;;
25479;SDS011;13393;49.378;8.686;2022-11-09T11:53:03;4.53;;;1.60;;
25479;SDS011;13393;49.378;8.686;2022-11-09T11:55:38;2.08;;;1.15;;
25479;SDS011;13393;49.378;8.686;2022-11-09T11:58:12;2.20;;;1.23;;
25479;SDS011;13393;49.378;8.686;2022-11-09T12:00:44;5.85;;;1.42;;
25479;SDS011;13393;49.378;8.686;2022-11-09T12:03:17;3.63;;;1.10;;
25479;SDS011;13393;49.378;8.686;2022-11-09T12:06:03;1.85;;;1.20;;
25479;SDS011;13393;49.378;8.686;2022-11-09T12:08:33;1.58;;;1.10;;
25479;SDS011;13393;49.378;8.686;2022-11-09T12:11:06;1.23;;;0.90;;
25479;SDS011;13393;49.378;8.686;2022-11-09T12:13:41;1.67;;;1.10;;
25479;SDS011;13393;49.378;8.686;2022-11-09T12:16:09;2.40;;;1.27;;
25479;SDS011;13393;49.378;8.686;2022-11-09T12:18:39;1.90;;;1.20;;
25479;SDS011;13393;49.378;8.686;2022-11-09T12:21:11;3.00;;;1.20;;
25479;SDS011;13393;49.378;8.686;2022-11-09T12:23:49;0.95;;;0.95;;
25479;SDS011;13393;49.378;8.686;2022-11-09T12:26:23;5.20;;;1.23;;
25479;SDS011;13393;49.378;8.686;2022-11-09T12:28:55;2.15;;;1.10;;
25479;SDS011;13393;49.378;8.686;2022-11-09T12:31:29;2.15;;;1.20;;
25479;SDS011;13393;49.378;8.686;2022-11-09T12:33:57;4.53;;;1.30;;
25479;SDS011;13393;49.378;8.686;2022-11-09T12:36:26;2.67;;;1.30;;
25479;SDS011;13393;49.378;8.686;2022-11-09T12:38:57;3.85;;;1.50;;
25479;SDS011;13393;49.378;8.686;2022-11-09T12:41:28;1.60;;;1.20;;
25479;SDS011;13393;49.378;8.686;2022-11-09T12:43:55;3.00;;;1.40;;
25479;SDS011;13393;49.378;8.686;2022-11-09T12:46:25;2.50;;;1.30;;
25479;SDS011;13393;49.378;8.686;2022-11-09T12:48:53;4.82;;;1.33;;
25479;SDS011;13393;49.378;8.686;2022-11-09T12:51:20;3.72;;;1.10;;
25479;SDS011;13393;49.378;8.686;2022-11-09T12:53:47;1.50;;;1.30;;
25479;SDS011;13393;49.378;8.686;2022-11-09T12:56:14;2.08;;;1.10;;
25479;SDS011;13393;49.378;8.686;2022-11-09T12:58:44;2.35;;;1.42;;
25479;SDS011;13393;49.378;8.686;2022-11-09T13:01:11;1.92;;;1.08;;
25479;SDS011;13393;49.378;8.686;2022-11-09T13:03:39;3.33;;;1.40;;
25479;SDS011;13393;49.378;8.686;2022-11-09T13:06:15;7.15;;;1.70;;
25479;SDS011;13393;49.378;8.686;2022-11-09T13:08:45;3.88;;;1.30;;
25479;SDS011;13393;49.378;8.686;2022-11-09T13:11:20;2.67;;;1.30;;
25479;SDS011;13393;49.378;8.686;2022-11-09T13:13:49;6.18;;;1.30;;
25479;SDS011;13393;49.378;8.686;2022-11-09T13:16:31;2.22;;;1.20;;
25479;SDS011;13393;49.378;8.686;2022-11-09T13:18:58;2.47;;;1.23;;
25479;SDS011;13393;49.378;8.686;2022-11-09T13:21:32;3.67;;;1.60;;
25479;SDS011;13393;49.378;8.686;2022-11-09T13:24:02;4.00;;;1.40;;
25479;SDS011;13393;49.378;8.686;2022-11-09T13:26:57;3.50;;;1.30;;
25479;SDS011;13393;49.378;8.686;2022-11-09T13:32:03;3.15;;;1.40;;
25479;SDS011;13393;49.378;8.686;2022-11-09T13:34:40;2.88;;;1.50;;
25479;SDS011;13393;49.378;8.686;2022-11-09T13:39:52;2.42;;;1.30;;
25479;SDS011;13393;49.378;8.686;2022-11-09T13:42:24;1.73;;;1.35;;
25479;SDS011;13393;49.378;8.686;2022-11-09T13:44:51;3.20;;;1.40;;
25479;SDS011;13393;49.378;8.686;2022-11-09T13:47:21;3.35;;;2.42;;
25479;SDS011;13393;49.378;8.686;2022-11-09T13:49:48;3.20;;;1.40;;
25479;SDS011;13393;49.378;8.686;2022-11-09T13:55:00;2.90;;;1.40;;
25479;SDS011;13393;49.378;8.686;2022-11-09T13:57:29;3.33;;;1.40;;
25479;SDS011;13393;49.378;8.686;2022-11-09T13:59:56;3.50;;;1.35;;
25479;SDS011;13393;49.378;8.686;2022-11-09T14:02:24;2.70;;;1.38;;
25479;SDS011;13393;49.378;8.686;2022-11-09T14:04:51;2.50;;;1.20;;
25479;SDS011;13393;49.378;8.686;2022-11-09T14:07:19;2.28;;;1.42;;
25479;SDS011;13393;49.378;8.686;2022-11-09T14:09:48;3.90;;;1.40;;
25479;SDS011;13393;49.378;8.686;2022-11-09T14:12:24;1.67;;;1.30;;
25479;SDS011;13393;49.378;8.686;2022-11-09T14:15:05;3.13;;;1.48;;
25479;SDS011;13393;49.378;8.686;2022-11-09T14:17:35;1.45;;;1.35;;
25479;SDS011;13393;49.378;8.686;2022-11-09T14:20:06;2.55;;;1.58;;
25479;SDS011;13393;49.378;8.686;2022-11-09T14:22:36;2.90;;;1.33;;
25479;SDS011;13393;49.378;8.686;2022-11-09T14:25:08;4.18;;;1.63;;
25479;SDS011;13393;49.378;8.686;2022-11-09T14:27:44;3.90;;;1.63;;
25479;SDS011;13393;49.378;8.686;2022-11-09T14:30:16;6.63;;;1.73;;
25479;SDS011;13393;49.378;8.686;2022-11-09T14:32:46;5.13;;;1.40;;
25479;SDS011;13393;49.378;8.686;2022-11-09T14:35:18;4.00;;;1.40;;
25479;SDS011;13393;49.378;8.686;2022-11-09T14:37:48;3.38;;;1.48;;
25479;SDS011;13393;49.378;8.686;2022-11-09T14:40:16;1.85;;;1.23;;
25479;SDS011;13393;49.378;8.686;2022-11-09T14:42:44;2.58;;;1.40;;
25479;SDS011;13393;49.378;8.686;2022-11-09T14:45:12;2.78;;;1.30;;
25479;SDS011;13393;49.378;8.686;2022-11-09T14:47:42;3.97;;;1.48;;
25479;SDS011;13393;49.378;8.686;2022-11-09T14:50:09;2.28;;;1.25;;
25479;SDS011;13393;49.378;8.686;2022-11-09T14:52:39;1.98;;;1.20;;
25479;SDS011;13393;49.378;8.686;2022-11-09T14:55:09;4.88;;;1.55;;
25479;SDS011;13393;49.378;8.686;2022-11-09T14:57:36;1.80;;;1.30;;
25479;SDS011;13393;49.378;8.686;2022-11-09T15:00:03;3.05;;;1.55;;
25479;SDS011;13393;49.378;8.686;2022-11-09T15:02:30;4.70;;;1.50;;
25479;SDS011;13393;49.378;8.686;2022-11-09T15:04:59;5.32;;;1.80;;
25479;SDS011;13393;49.378;8.686;2022-11-09T15:07:27;2.60;;;1.45;;
25479;SDS011;13393;49.378;8.686;2022-11-09T15:09:55;4.50;;;1.67;;
25479;SDS011;13393;49.378;8.686;2022-11-09T15:12:22;3.33;;;1.40;;
25479;SDS011;13393;49.378;8.686;2022-11-09T15:14:49;3.05;;;1.67;;